Time;durP1;ratioP1;P1;durP2;ratioP2;P2;SDS_P1;SDS_P2;PMS_P1;PMS_P2;Temp;Humidity;BMP_temperature;BMP_pressure;BME280_temperature;BME280_humidity;BME280_pressure;Samples;Min_cycle;Max_cycle;Signal;HPM_P1;HPM_P2
2021/01/29 05:00:57;;;;;;;;;;;9.80;99.90;;;;;;5934115;22;19940;-67
2021/01/29 05:03:37;;;;;;;;;;;9.80;99.90;;;;;;5040075;28;19985;-67
2021/01/29 05:06:21;;;;;;;;;;;9.70;99.90;;;;;;5039627;28;19952;-67
2021/01/29 05:09:06;;;;;;;;;;;9.70;99.90;;;;;;5049958;23;19925;-71
2021/01/29 05:11:47;;;;;;;;;;;9.70;99.90;;;;;;5034042;28;19955;-71
2021/01/29 05:14:19;;;;;;;;;;;9.70;99.90;;;;;;5030569;28;19940;-71
2021/01/29 05:17:07;;;;;;;;;;;9.70;99.90;;;;;;5034131;28;20019;-71
2021/01/29 05:19:54;;;;;;;;;;;9.60;99.90;;;;;;5026954;28;19925;-71
2021/01/29 05:22:36;;;;;;;;;;;9.60;99.90;;;;;;5034291;28;19925;-71
2021/01/29 05:25:11;;;;;;;;;;;9.70;99.90;;;;;;5033760;28;20371;-71
2021/01/29 05:27:42;;;;;;;;;;;9.70;99.90;;;;;;5034394;28;19929;-70
2021/01/29 05:30:35;;;;;;;;;;;9.70;99.90;;;;;;5034035;28;19933;-71
2021/01/29 05:33:17;;;;;;;;;;;9.70;99.90;;;;;;5035967;28;20372;-70
2021/01/29 05:35:51;;;;;;;;;;;9.70;99.90;;;;;;5038077;28;19932;-70
2021/01/29 05:38:36;;;;;;;;;;;9.60;99.90;;;;;;5037691;28;20298;-71
2021/01/29 05:41:19;;;;;;;;;;;9.40;99.90;;;;;;5037990;28;19925;-72
2021/01/29 05:44:03;;;;;;;;;;;9.40;99.90;;;;;;5037636;28;19987;-72
2021/01/29 05:46:30;;;;;;;;;;;9.40;99.90;;;;;;5037277;28;19925;-72
2021/01/29 05:49:09;;;;;;;;;;;9.40;99.90;;;;;;5037495;28;20307;-71
2021/01/29 05:51:51;;;;;;;;;;;9.40;99.90;;;;;;5037668;28;19925;-71
2021/01/29 05:54:26;;;;;;;;;;;9.40;99.90;;;;;;5037703;28;19925;-73
2021/01/29 05:57:07;;;;;;;;;;;9.30;99.90;;;;;;5037719;28;20298;-72
2021/01/29 05:59:38;;;;;;;;;;;9.30;99.90;;;;;;5037485;28;19925;-72
2021/01/29 06:02:24;;;;;;;;;;;9.30;99.90;;;;;;5037754;28;19932;-72
2021/01/29 06:05:15;;;;;;;;;;;9.30;99.90;;;;;;5037111;28;20384;-72
2021/01/29 06:07:59;;;;;;;;;;;9.30;99.90;;;;;;5037350;28;19929;-73
2021/01/29 06:10:52;;;;;;;;;;;9.30;99.90;;;;;;5036746;28;19925;-71
2021/01/29 06:13:39;;;;;;;;;;;9.30;99.90;;;;;;5036964;28;19981;-71
2021/01/29 06:16:19;;;;;;;;;;;9.30;99.90;;;;;;5037362;28;19930;-72
2021/01/29 06:19:12;;;;;;;;;;;9.30;99.90;;;;;;5037385;28;19925;-73
2021/01/29 06:21:57;;;;;;;;;;;9.30;99.90;;;;;;5037284;28;19925;-71
2021/01/29 06:24:42;;;;;;;;;;;9.30;99.90;;;;;;5036786;28;19925;-71
2021/01/29 06:27:23;;;;;;;;;;;9.40;99.90;;;;;;5036633;28;20351;-71
2021/01/29 06:30:09;;;;;;;;;;;9.40;99.90;;;;;;5037182;28;19975;-72
2021/01/29 06:33:00;;;;;;;;;;;9.30;99.90;;;;;;5036236;28;20291;-72
2021/01/29 06:35:30;;;;;;;;;;;9.30;99.90;;;;;;5036281;28;20364;-72
2021/01/29 06:38:02;;;;;;;;;;;9.30;99.90;;;;;;5039022;28;19925;-72
2021/01/29 06:40:32;;;;;;;;;;;9.30;99.90;;;;;;5050922;28;19975;-72
2021/01/29 06:43:17;;;;;;;;;;;9.30;99.90;;;;;;5049448;28;19925;-71
2021/01/29 06:46:03;;;;;;;;;;;9.30;99.90;;;;;;5051303;28;19929;-70
2021/01/29 06:48:38;;;;;;;;;;;9.30;99.90;;;;;;5051502;28;19925;-72
2021/01/29 06:51:15;;;;;;;;;;;9.40;99.90;;;;;;5052586;28;20024;-72
2021/01/29 06:53:56;;;;;;;;;;;9.40;99.90;;;;;;5047430;28;19937;-72
2021/01/29 06:56:31;;;;;;;;;;;9.50;99.90;;;;;;5037922;28;19952;-72
2021/01/29 06:59:12;;;;;;;;;;;9.50;99.90;;;;;;5054046;28;19945;-71
2021/01/29 07:01:56;;;;;;;;;;;9.50;99.90;;;;;;5053116;28;19925;-72
2021/01/29 07:04:35;;;;;;;;;;;9.60;99.90;;;;;;5052009;28;19925;-72
2021/01/29 07:07:06;;;;;;;;;;;9.60;99.90;;;;;;5053526;28;19948;-72
2021/01/29 07:09:42;;;;;;;;;;;9.60;99.90;;;;;;5051936;28;19932;-71
2021/01/29 07:12:15;;;;;;;;;;;9.50;99.90;;;;;;5053050;28;19925;-72
2021/01/29 07:14:47;;;;;;;;;;;9.50;99.90;;;;;;5043507;28;19929;-71
2021/01/29 07:17:15;;;;;;;;;;;9.50;99.90;;;;;;5037599;28;19972;-71
2021/01/29 07:19:53;;;;;;;;;;;9.50;99.90;;;;;;5037364;28;19929;-71
2021/01/29 07:22:33;;;;;;;;;;;9.50;99.90;;;;;;5037026;28;19932;-71
2021/01/29 07:25:03;;;;;;;;;;;9.50;99.90;;;;;;5036975;28;19929;-71
2021/01/29 07:27:34;;;;;;;;;;;9.60;99.90;;;;;;5038803;28;19925;-71
2021/01/29 07:30:18;;;;;;;;;;;9.60;99.90;;;;;;5040716;28;19925;-70
2021/01/29 07:32:45;;;;;;;;;;;9.60;99.90;;;;;;5049175;28;19929;-70
2021/01/29 07:35:17;;;;;;;;;;;9.60;99.90;;;;;;5049403;28;19936;-71
2021/01/29 07:38:01;;;;;;;;;;;9.60;99.90;;;;;;5050657;28;19925;-71
2021/01/29 07:40:42;;;;;;;;;;;9.60;99.90;;;;;;5051027;28;19925;-70
2021/01/29 07:43:15;;;;;;;;;;;9.70;99.90;;;;;;5047924;28;19925;-71
2021/01/29 07:45:48;;;;;;;;;;;9.70;99.90;;;;;;5051708;28;19929;-71
2021/01/29 07:48:29;;;;;;;;;;;9.70;99.90;;;;;;5053628;28;19932;-71
2021/01/29 07:51:00;;;;;;;;;;;9.70;99.90;;;;;;5054482;28;19932;-70
2021/01/29 07:53:30;;;;;;;;;;;9.80;99.90;;;;;;5052669;28;19925;-71
2021/01/29 07:56:03;;;;;;;;;;;9.80;99.90;;;;;;5044017;28;19925;-71
2021/01/29 07:58:36;;;;;;;;;;;9.80;99.90;;;;;;5040046;28;19925;-70
2021/01/29 08:01:20;;;;;;;;;;;9.90;99.90;;;;;;5044681;28;19929;-70
2021/01/29 08:03:53;;;;;;;;;;;9.90;99.90;;;;;;5039781;28;19925;-71
2021/01/29 08:06:22;;;;;;;;;;;10.00;99.90;;;;;;5036834;28;19929;-71
2021/01/29 08:08:51;;;;;;;;;;;10.10;99.90;;;;;;5035471;28;20383;-70
2021/01/29 08:11:18;;;;;;;;;;;10.10;99.90;;;;;;5036085;28;19973;-71
2021/01/29 08:14:00;;;;;;;;;;;10.10;99.90;;;;;;5036831;28;19944;-70
2021/01/29 08:16:38;;;;;;;;;;;10.10;99.90;;;;;;5033807;28;19933;-69
2021/01/29 08:19:08;;;;;;;;;;;10.20;99.90;;;;;;5035619;28;20276;-69
2021/01/29 08:21:58;;;;;;;;;;;10.20;99.90;;;;;;5037255;28;19925;-69
2021/01/29 08:24:39;;;;;;;;;;;10.30;99.90;;;;;;5036163;28;20403;-69
2021/01/29 08:27:22;;;;;;;;;;;10.30;99.90;;;;;;5036583;28;20384;-69
2021/01/29 08:29:57;;;;;;;;;;;10.40;99.90;;;;;;5036032;28;19925;-69
2021/01/29 08:32:31;;;;;;;;;;;10.40;99.90;;;;;;5036449;28;19913;-69
2021/01/29 08:35:06;;;;;;;;;;;10.50;99.90;;;;;;5036132;28;19925;-69
2021/01/29 08:37:37;;;;;;;;;;;10.50;99.90;;;;;;5036583;28;19925;-69
2021/01/29 08:40:11;;;;;;;;;;;10.50;99.90;;;;;;5036028;28;19925;-69
2021/01/29 08:42:42;;;;;;;;;;;10.50;99.90;;;;;;5035437;28;19929;-68
2021/01/29 08:45:19;;;;;;;;;;;10.70;99.90;;;;;;5036026;28;19925;-69
2021/01/29 08:47:54;;;;;;;;;;;10.80;99.90;;;;;;5038029;28;19980;-68
2021/01/29 08:50:23;;;;;;;;;;;10.80;99.90;;;;;;5037773;28;19926;-68
2021/01/29 08:53:05;;;;;;;;;;;10.70;99.90;;;;;;5035647;28;19952;-66
2021/01/29 08:55:41;;;;;;;;;;;10.80;99.90;;;;;;5034813;28;20338;-66
2021/01/29 08:58:11;;;;;;;;;;;10.90;99.90;;;;;;5034214;28;19925;-66
2021/01/29 09:00:37;;;;;;;;;;;11.70;99.90;;;;;;5034531;28;19925;-66
2021/01/29 09:03:07;;;;;;;;;;;12.80;99.90;;;;;;5035170;28;19936;-66
2021/01/29 09:05:34;;;;;;;;;;;13.60;99.90;;;;;;5034426;28;19925;-66
2021/01/29 09:08:03;;;;;;;;;;;14.40;99.90;;;;;;5037374;28;19932;-66
2021/01/29 09:10:51;;;;;;;;;;;15.50;99.90;;;;;;5038264;28;19997;-65
2021/01/29 09:13:19;;;;;;;;;;;16.70;99.90;;;;;;5038359;28;19925;-65
2021/01/29 09:15:50;;;;;;;;;;;17.30;99.90;;;;;;5038136;28;19925;-67
2021/01/29 09:18:18;;;;;;;;;;;17.90;99.90;;;;;;5038491;28;20055;-67
2021/01/29 09:20:48;;;;;;;;;;;18.60;99.90;;;;;;5038699;28;19932;-67
2021/01/29 09:23:20;;;;;;;;;;;19.30;99.90;;;;;;5038690;28;20379;-67
2021/01/29 09:25:49;;;;;;;;;;;19.50;99.90;;;;;;5038565;28;19925;-67
2021/01/29 09:28:17;;;;;;;;;;;19.50;99.90;;;;;;5038893;28;19932;-67
2021/01/29 09:30:49;;;;;;;;;;;19.40;99.90;;;;;;5038866;28;19936;-67
2021/01/29 09:33:18;;;;;;;;;;;18.70;99.90;;;;;;5038447;28;19925;-66
2021/01/29 09:35:49;;;;;;;;;;;17.50;99.90;;;;;;5038622;28;20375;-67
2021/01/29 09:38:19;;;;;;;;;;;16.00;99.90;;;;;;5038380;28;19929;-68
2021/01/29 09:40:52;;;;;;;;;;;15.00;99.90;;;;;;5038454;28;19925;-68
2021/01/29 09:43:22;;;;;;;;;;;14.30;99.90;;;;;;5039083;28;19925;-68
2021/01/29 09:45:52;;;;;;;;;;;13.80;99.90;;;;;;5038078;28;19925;-67
2021/01/29 09:48:20;;;;;;;;;;;13.40;99.90;;;;;;5039196;28;19955;-67
2021/01/29 09:50:50;;;;;;;;;;;13.40;99.90;;;;;;5038450;28;19925;-68
2021/01/29 09:53:21;;;;;;;;;;;13.60;99.90;;;;;;5037610;28;20505;-67
2021/01/29 09:55:53;;;;;;;;;;;14.70;99.90;;;;;;5037230;28;19925;-67
2021/01/29 09:58:22;;;;;;;;;;;15.90;99.90;;;;;;5037310;28;20291;-67
2021/01/29 10:00:56;;;;;;;;;;;16.50;99.90;;;;;;5040323;28;19926;-67
2021/01/29 10:03:25;;;;;;;;;;;17.10;99.90;;;;;;5037839;28;19929;-66
2021/01/29 10:05:52;;;;;;;;;;;17.30;99.90;;;;;;5036925;28;19972;-66
2021/01/29 10:08:21;;;;;;;;;;;17.20;99.90;;;;;;5037316;28;19925;-66
2021/01/29 10:10:49;;;;;;;;;;;17.00;99.90;;;;;;5037514;28;19925;-65
2021/01/29 10:13:22;;;;;;;;;;;16.60;99.90;;;;;;5036711;28;20403;-65
2021/01/29 10:15:56;;;;;;;;;;;16.90;99.90;;;;;;5036836;28;20011;-66
2021/01/29 10:18:23;;;;;;;;;;;17.20;99.90;;;;;;5036430;28;19929;-65
2021/01/29 10:20:50;;;;;;;;;;;17.70;99.90;;;;;;5036771;28;19925;-67
2021/01/29 10:23:24;;;;;;;;;;;18.20;99.50;;;;;;5036852;28;19925;-67
2021/01/29 10:26:05;;;;;;;;;;;18.40;99.00;;;;;;5036712;28;19948;-67
2021/01/29 10:28:44;;;;;;;;;;;18.70;99.90;;;;;;5033244;28;19925;-67
2021/01/29 10:31:11;;;;;;;;;;;19.60;97.50;;;;;;5036843;28;19925;-67
2021/01/29 10:33:39;;;;;;;;;;;20.10;94.30;;;;;;5036934;28;19925;-66
2021/01/29 10:36:07;;;;;;;;;;;20.50;92.20;;;;;;5037656;28;19925;-66
2021/01/29 10:38:39;;;;;;;;;;;19.70;92.90;;;;;;5036949;28;19925;-67
2021/01/29 10:41:17;;;;;;;;;;;19.70;92.60;;;;;;5040568;28;19925;-66
2021/01/29 10:43:45;;;;;;;;;;;19.50;91.20;;;;;;5037082;28;19932;-67
2021/01/29 10:46:16;;;;;;;;;;;19.20;92.30;;;;;;5043704;28;19925;-67
2021/01/29 10:48:48;;;;;;;;;;;18.80;91.80;;;;;;5038583;28;19925;-67
2021/01/29 10:51:27;;;;;;;;;;;18.60;92.50;;;;;;5037326;28;19932;-68
2021/01/29 10:53:58;;;;;;;;;;;19.10;92.90;;;;;;5036593;28;20015;-67
2021/01/29 10:56:25;;;;;;;;;;;19.00;91.70;;;;;;5036458;28;20264;-67
2021/01/29 10:58:56;;;;;;;;;;;18.90;92.60;;;;;;5036407;28;19969;-67
2021/01/29 11:01:28;;;;;;;;;;;19.10;91.50;;;;;;5036066;28;20020;-67
2021/01/29 11:03:56;;;;;;;;;;;19.20;93.00;;;;;;5036104;28;19933;-67
2021/01/29 11:06:24;;;;;;;;;;;18.80;93.60;;;;;;5035080;28;20387;-67
2021/01/29 11:08:52;;;;;;;;;;;18.10;94.50;;;;;;5035957;28;19925;-67
2021/01/29 11:11:21;;;;;;;;;;;17.70;94.90;;;;;;5036336;28;19925;-67
2021/01/29 11:13:52;;;;;;;;;;;16.90;95.70;;;;;;5036711;28;19932;-67
2021/01/29 11:16:20;;;;;;;;;;;16.50;98.90;;;;;;5036831;28;19925;-67
2021/01/29 11:18:54;;;;;;;;;;;16.00;98.70;;;;;;5036678;28;19925;-66
2021/01/29 11:21:24;;;;;;;;;;;15.60;99.90;;;;;;5037485;28;20233;-66
2021/01/29 11:23:58;;;;;;;;;;;15.30;99.90;;;;;;5036190;28;19970;-66
2021/01/29 11:26:27;;;;;;;;;;;15.00;99.90;;;;;;5036531;28;19925;-66
2021/01/29 11:28:58;;;;;;;;;;;14.80;99.90;;;;;;5036153;28;19956;-66
2021/01/29 11:31:35;;;;;;;;;;;14.90;99.90;;;;;;5035983;28;19925;-66
2021/01/29 11:34:03;;;;;;;;;;;14.90;99.90;;;;;;5036140;28;19929;-66
2021/01/29 11:36:32;;;;;;;;;;;14.90;99.90;;;;;;5035620;28;19948;-67
2021/01/29 11:39:03;;;;;;;;;;;14.80;99.90;;;;;;5036069;28;19925;-67
2021/01/29 11:41:33;;;;;;;;;;;14.40;99.90;;;;;;5036137;28;19925;-67
2021/01/29 11:44:05;;;;;;;;;;;14.20;99.90;;;;;;5035889;28;19978;-67
2021/01/29 11:46:34;;;;;;;;;;;14.10;99.90;;;;;;5035551;28;19932;-67
2021/01/29 11:49:09;;;;;;;;;;;14.00;99.90;;;;;;5035478;28;19925;-66
2021/01/29 11:51:38;;;;;;;;;;;13.90;99.90;;;;;;5035372;28;19925;-66
2021/01/29 11:54:09;;;;;;;;;;;13.80;99.90;;;;;;5035550;28;19925;-66
2021/01/29 11:56:39;;;;;;;;;;;13.90;99.90;;;;;;5035336;28;19925;-66
2021/01/29 11:59:10;;;;;;;;;;;13.90;99.90;;;;;;5035283;28;19925;-66
2021/01/29 12:01:38;;;;;;;;;;;13.60;99.90;;;;;;5035692;28;19975;-66
2021/01/29 12:04:10;;;;;;;;;;;13.30;99.90;;;;;;5035226;28;19925;-65
2021/01/29 12:06:38;;;;;;;;;;;13.10;99.90;;;;;;5036611;28;19925;-66
2021/01/29 12:09:07;;;;;;;;;;;12.70;99.90;;;;;;5035526;28;19925;-66
2021/01/29 12:11:35;;;;;;;;;;;12.70;99.90;;;;;;5037593;28;19929;-66
2021/01/29 12:14:11;;;;;;;;;;;12.70;99.90;;;;;;5036612;28;19925;-66
2021/01/29 12:16:37;;;;;;;;;;;12.80;99.90;;;;;;5036152;28;19925;-67
2021/01/29 12:19:06;;;;;;;;;;;13.00;99.90;;;;;;5036197;28;19926;-66
2021/01/29 12:21:47;;;;;;;;;;;13.20;99.90;;;;;;5035894;28;19929;-68
2021/01/29 12:24:23;;;;;;;;;;;13.20;99.90;;;;;;5035858;28;19935;-66
2021/01/29 12:26:53;;;;;;;;;;;13.10;99.90;;;;;;5035139;28;19932;-66
2021/01/29 12:29:25;;;;;;;;;;;13.10;99.90;;;;;;5036231;28;20023;-66
2021/01/29 12:32:00;;;;;;;;;;;13.00;99.90;;;;;;5035386;28;19974;-66
2021/01/29 12:34:28;;;;;;;;;;;12.80;99.90;;;;;;5035594;28;19925;-66
2021/01/29 12:36:58;;;;;;;;;;;12.50;99.90;;;;;;5035031;28;19925;-66
2021/01/29 12:39:26;;;;;;;;;;;12.60;99.90;;;;;;5035025;28;19932;-66
2021/01/29 12:41:54;;;;;;;;;;;12.70;99.90;;;;;;5038756;28;19929;-67
2021/01/29 12:44:38;;;;;;;;;;;12.50;99.90;;;;;;5038279;28;19925;-66
2021/01/29 12:47:14;;;;;;;;;;;12.50;99.90;;;;;;5035347;28;19925;-66
2021/01/29 12:49:43;;;;;;;;;;;12.50;99.90;;;;;;5035423;28;20375;-66
2021/01/29 12:52:15;;;;;;;;;;;12.40;99.90;;;;;;5035590;28;19941;-66
2021/01/29 12:54:44;;;;;;;;;;;12.30;99.90;;;;;;5034634;28;19932;-67
2021/01/29 12:57:12;;;;;;;;;;;12.20;99.90;;;;;;5034764;28;19933;-67
2021/01/29 12:59:45;;;;;;;;;;;11.90;99.90;;;;;;5034229;28;19925;-66
2021/01/29 13:02:32;;;;;;;;;;;11.80;99.90;;;;;;5035336;28;20363;-66
2021/01/29 13:05:02;;;;;;;;;;;11.70;99.90;;;;;;5028231;28;19955;-67
2021/01/29 13:07:30;;;;;;;;;;;11.70;99.90;;;;;;5034967;28;19925;-66
2021/01/29 13:10:03;;;;;;;;;;;11.70;99.90;;;;;;5033856;28;20029;-66
2021/01/29 13:12:38;;;;;;;;;;;11.60;99.90;;;;;;5034393;28;19932;-66
2021/01/29 13:15:24;;;;;;;;;;;11.50;99.90;;;;;;5034444;28;19933;-67
2021/01/29 13:17:58;;;;;;;;;;;11.40;99.90;;;;;;5000807;28;19925;-66
2021/01/29 13:20:26;;;;;;;;;;;11.40;99.90;;;;;;5034360;28;19956;-66
2021/01/29 13:22:55;;;;;;;;;;;11.30;99.90;;;;;;5034493;28;20427;-69
2021/01/29 13:25:25;;;;;;;;;;;11.30;99.90;;;;;;5033574;28;19932;-68
2021/01/29 13:27:55;;;;;;;;;;;11.40;99.90;;;;;;5034214;28;19925;-68
2021/01/29 13:30:23;;;;;;;;;;;11.30;99.90;;;;;;5034072;28;19932;-68
2021/01/29 13:32:49;;;;;;;;;;;11.40;99.90;;;;;;5033957;28;20358;-68
2021/01/29 13:35:22;;;;;;;;;;;11.40;99.90;;;;;;5033837;28;19975;-69
2021/01/29 13:37:51;;;;;;;;;;;11.30;99.90;;;;;;5033927;28;19948;-69
2021/01/29 13:40:22;;;;;;;;;;;11.30;99.90;;;;;;5034140;28;19968;-68
2021/01/29 13:42:48;;;;;;;;;;;11.30;99.90;;;;;;5033899;28;19929;-68
2021/01/29 13:45:15;;;;;;;;;;;11.40;99.90;;;;;;5033885;28;19925;-69
2021/01/29 13:47:43;;;;;;;;;;;11.50;99.90;;;;;;5034284;28;19940;-69
2021/01/29 13:50:14;;;;;;;;;;;11.60;99.90;;;;;;5033907;28;19936;-68
2021/01/29 13:52:47;;;;;;;;;;;11.70;99.90;;;;;;5033517;28;20030;-68
2021/01/29 13:55:21;;;;;;;;;;;11.80;99.90;;;;;;5037309;28;19925;-69
2021/01/29 13:57:51;;;;;;;;;;;11.80;99.90;;;;;;5037054;28;19936;-69
2021/01/29 14:00:19;;;;;;;;;;;11.70;99.90;;;;;;5037052;28;19975;-68
2021/01/29 14:02:48;;;;;;;;;;;11.80;99.90;;;;;;5036964;28;19925;-69
2021/01/29 14:05:16;;;;;;;;;;;11.70;99.90;;;;;;5036951;28;19932;-69
2021/01/29 14:07:43;;;;;;;;;;;11.60;99.90;;;;;;5037284;28;20549;-69
2021/01/29 14:10:10;;;;;;;;;;;11.40;99.90;;;;;;5036604;28;19940;-69
2021/01/29 14:12:42;;;;;;;;;;;11.40;99.90;;;;;;5037300;28;19925;-69
2021/01/29 14:15:13;;;;;;;;;;;11.50;99.90;;;;;;5037175;28;20027;-69
2021/01/29 14:17:44;;;;;;;;;;;11.50;99.90;;;;;;5037029;28;19955;-69
2021/01/29 14:20:14;;;;;;;;;;;11.50;99.90;;;;;;5037382;28;19925;-69
2021/01/29 14:22:44;;;;;;;;;;;11.60;99.90;;;;;;5036817;28;20380;-69
2021/01/29 14:25:15;;;;;;;;;;;11.50;99.90;;;;;;5036416;28;19926;-70
2021/01/29 14:27:46;;;;;;;;;;;11.30;99.90;;;;;;5037221;28;19948;-66
2021/01/29 14:30:17;;;;;;;;;;;11.20;99.90;;;;;;5037936;28;20322;-67
2021/01/29 14:32:49;;;;;;;;;;;11.20;99.90;;;;;;5037624;28;19929;-68
2021/01/29 14:35:16;;;;;;;;;;;11.10;99.90;;;;;;5037245;28;19925;-67
2021/01/29 14:37:52;;;;;;;;;;;11.10;99.90;;;;;;5039527;28;19928;-67
2021/01/29 14:40:30;;;;;;;;;;;11.00;99.90;;;;;;5038594;28;20380;-67
2021/01/29 14:43:08;;;;;;;;;;;10.90;99.90;;;;;;5036847;28;20048;-68
2021/01/29 14:45:46;;;;;;;;;;;10.80;99.90;;;;;;5036992;28;19925;-67
2021/01/29 14:48:20;;;;;;;;;;;10.70;99.90;;;;;;5036989;28;19929;-67
2021/01/29 14:50:54;;;;;;;;;;;10.50;99.90;;;;;;5037493;28;19929;-67
2021/01/29 14:53:29;;;;;;;;;;;10.40;99.90;;;;;;5037570;28;19925;-67
2021/01/29 14:55:56;;;;;;;;;;;10.30;99.90;;;;;;5036716;28;19926;-67
2021/01/29 14:58:25;;;;;;;;;;;10.10;99.90;;;;;;5036644;28;20388;-67
2021/01/29 15:00:53;;;;;;;;;;;9.90;99.90;;;;;;5037657;28;19925;-67
2021/01/29 15:03:23;;;;;;;;;;;9.70;99.90;;;;;;5036155;28;20383;-67
2021/01/29 15:05:51;;;;;;;;;;;9.50;99.90;;;;;;5036105;28;19972;-67
2021/01/29 15:08:18;;;;;;;;;;;9.40;99.90;;;;;;5036159;28;19925;-67
2021/01/29 15:10:46;;;;;;;;;;;9.30;99.90;;;;;;5036389;28;19932;-67
2021/01/29 15:13:14;;;;;;;;;;;9.30;99.90;;;;;;5036695;28;19929;-67
2021/01/29 15:15:45;;;;;;;;;;;9.30;99.90;;;;;;5036791;28;19932;-67
2021/01/29 15:18:13;;;;;;;;;;;9.20;99.90;;;;;;5036505;28;19933;-67
2021/01/29 15:20:40;;;;;;;;;;;9.20;99.90;;;;;;5035868;28;19947;-68
2021/01/29 15:23:26;;;;;;;;;;;9.20;99.90;;;;;;5035995;28;19983;-67
2021/01/29 15:26:14;;;;;;;;;;;9.10;99.90;;;;;;5037566;28;19925;-67
2021/01/29 15:28:51;;;;;;;;;;;9.10;99.90;;;;;;5041500;28;19925;-68
2021/01/29 15:31:38;;;;;;;;;;;9.20;99.90;;;;;;5040723;28;19925;-67
2021/01/29 15:34:04;;;;;;;;;;;9.20;99.90;;;;;;5053467;22;20302;-64
2021/01/29 15:36:51;;;;;;;;;;;9.20;99.90;;;;;;5036393;28;19925;-63
2021/01/29 15:39:34;;;;;;;;;;;9.10;99.90;;;;;;5029663;28;19925;-64
2021/01/29 15:42:04;;;;;;;;;;;8.90;99.90;;;;;;5036161;28;19972;-64
2021/01/29 15:44:51;;;;;;;;;;;8.90;99.90;;;;;;5036235;28;19925;-64
2021/01/29 15:47:35;;;;;;;;;;;8.90;99.90;;;;;;5035935;28;19933;-64
2021/01/29 15:50:04;;;;;;;;;;;8.90;99.90;;;;;;5036167;28;19929;-64
2021/01/29 15:52:45;;;;;;;;;;;8.80;99.90;;;;;;5036169;28;19925;-64
2021/01/29 15:55:20;;;;;;;;;;;8.80;99.90;;;;;;5036349;28;20338;-65
2021/01/29 15:57:48;;;;;;;;;;;8.80;99.90;;;;;;5035757;28;19925;-64
2021/01/29 16:00:24;;;;;;;;;;;8.70;99.90;;;;;;5039040;28;19925;-65
2021/01/29 16:02:53;;;;;;;;;;;8.70;99.90;;;;;;5058478;28;19957;-65
2021/01/29 16:05:23;;;;;;;;;;;8.70;99.90;;;;;;5055522;28;19948;-64
2021/01/29 16:07:58;;;;;;;;;;;8.80;99.90;;;;;;5058398;28;19909;-68
2021/01/29 16:10:24;;;;;;;;;;;8.80;99.90;;;;;;5059256;28;19916;-65
2021/01/29 16:13:01;;;;;;;;;;;8.80;99.90;;;;;;5047922;28;19925;-65
2021/01/29 16:15:29;;;;;;;;;;;8.80;99.90;;;;;;5039382;28;19925;-65
2021/01/29 16:17:59;;;;;;;;;;;8.80;99.90;;;;;;5037164;28;19929;-66
2021/01/29 16:20:28;;;;;;;;;;;8.90;99.90;;;;;;5037357;28;19931;-65
2021/01/29 16:22:58;;;;;;;;;;;8.80;99.90;;;;;;5036268;28;19928;-65
2021/01/29 16:25:25;;;;;;;;;;;8.90;99.90;;;;;;5035992;28;20395;-65
2021/01/29 16:27:51;;;;;;;;;;;8.80;99.90;;;;;;5037309;28;19932;-65
2021/01/29 16:30:22;;;;;;;;;;;8.80;99.90;;;;;;5035904;28;19925;-64
2021/01/29 16:32:48;;;;;;;;;;;8.70;99.90;;;;;;5035810;28;19936;-65
2021/01/29 16:35:20;;;;;;;;;;;8.70;99.90;;;;;;5034680;28;19925;-65
2021/01/29 16:37:46;;;;;;;;;;;8.70;99.90;;;;;;5034846;28;20253;-65
2021/01/29 16:40:14;;;;;;;;;;;8.70;99.90;;;;;;5035860;28;19925;-65
2021/01/29 16:42:40;;;;;;;;;;;8.70;99.90;;;;;;5035648;28;19925;-64
2021/01/29 16:45:22;;;;;;;;;;;8.70;99.90;;;;;;5036584;28;19913;-64
2021/01/29 16:47:56;;;;;;;;;;;8.70;99.90;;;;;;5036874;28;19936;-64
2021/01/29 16:50:24;;;;;;;;;;;8.70;99.90;;;;;;5034757;28;19925;-64
2021/01/29 16:52:56;;;;;;;;;;;8.70;99.90;;;;;;5034977;28;19947;-65
2021/01/29 16:55:23;;;;;;;;;;;8.70;99.90;;;;;;5037771;28;19925;-65
2021/01/29 16:57:57;;;;;;;;;;;8.60;99.90;;;;;;5039057;28;20410;-64
2021/01/29 17:00:24;;;;;;;;;;;8.60;99.90;;;;;;5036134;28;20376;-64
2021/01/29 17:02:50;;;;;;;;;;;8.60;99.90;;;;;;5035365;28;19925;-64
2021/01/29 17:05:21;;;;;;;;;;;8.50;99.90;;;;;;5037304;28;19932;-64
2021/01/29 17:07:47;;;;;;;;;;;8.50;99.90;;;;;;5039549;28;19979;-64
2021/01/29 17:10:20;;;;;;;;;;;8.40;99.90;;;;;;5036671;28;19925;-65
2021/01/29 17:12:46;;;;;;;;;;;8.40;99.90;;;;;;5036208;28;19972;-65
2021/01/29 17:15:15;;;;;;;;;;;8.30;99.90;;;;;;5037956;28;19956;-65
2021/01/29 17:17:42;;;;;;;;;;;8.20;99.90;;;;;;5040232;28;19929;-65
2021/01/29 17:20:08;;;;;;;;;;;8.20;99.90;;;;;;5043922;28;19932;-65
2021/01/29 17:22:36;;;;;;;;;;;8.10;99.90;;;;;;5049652;28;19916;-64
2021/01/29 17:25:04;;;;;;;;;;;8.10;99.90;;;;;;5054958;28;19924;-64
2021/01/29 17:27:32;;;;;;;;;;;8.00;99.90;;;;;;5057500;28;19933;-65
2021/01/29 17:29:59;;;;;;;;;;;8.00;99.90;;;;;;5047932;28;19948;-64
2021/01/29 17:32:26;;;;;;;;;;;8.10;99.90;;;;;;5040531;28;19929;-64
2021/01/29 17:34:53;;;;;;;;;;;8.10;99.90;;;;;;4998076;28;1233502;-65
2021/01/29 17:37:21;;;;;;;;;;;8.10;99.90;;;;;;5062205;28;19913;-65
2021/01/29 17:39:47;;;;;;;;;;;8.10;99.90;;;;;;5061097;28;19913;-67
2021/01/29 17:42:27;;;;;;;;;;;8.20;99.90;;;;;;5058166;28;19925;-65
2021/01/29 17:44:56;;;;;;;;;;;8.20;99.90;;;;;;5049295;28;19979;-65
2021/01/29 17:47:23;;;;;;;;;;;8.30;99.90;;;;;;5053521;28;19932;-65
2021/01/29 17:49:50;;;;;;;;;;;8.30;99.90;;;;;;5042370;28;19925;-65
2021/01/29 17:52:19;;;;;;;;;;;8.30;99.90;;;;;;5037873;28;19925;-65
2021/01/29 17:54:49;;;;;;;;;;;8.30;99.90;;;;;;5038872;28;19983;-64
2021/01/29 17:57:17;;;;;;;;;;;8.40;99.90;;;;;;5039029;28;19932;-65
2021/01/29 17:59:43;;;;;;;;;;;8.40;99.90;;;;;;5044408;28;19925;-64
2021/01/29 18:02:16;;;;;;;;;;;8.40;99.90;;;;;;5050240;28;19936;-64
2021/01/29 18:04:42;;;;;;;;;;;8.10;99.90;;;;;;5056095;28;19932;-64
2021/01/29 18:07:16;;;;;;;;;;;8.00;99.90;;;;;;5057121;28;19932;-64
2021/01/29 18:09:58;;;;;;;;;;;7.90;99.90;;;;;;5049183;28;19925;-64
2021/01/29 18:12:28;;;;;;;;;;;7.90;99.90;;;;;;5041384;28;20375;-66
2021/01/29 18:15:06;;;;;;;;;;;7.80;99.90;;;;;;5041829;28;19931;-64
2021/01/29 18:17:34;;;;;;;;;;;7.80;99.90;;;;;;5041596;28;20376;-65
2021/01/29 18:20:01;;;;;;;;;;;7.80;99.90;;;;;;5043886;28;19962;-65
2021/01/29 18:22:27;;;;;;;;;;;7.80;99.90;;;;;;5042036;28;19925;-64
2021/01/29 18:24:55;;;;;;;;;;;7.70;99.90;;;;;;5040724;28;20384;-64
2021/01/29 18:27:21;;;;;;;;;;;7.70;99.90;;;;;;5039868;28;20288;-65
2021/01/29 18:29:47;;;;;;;;;;;7.70;99.90;;;;;;5038954;28;19925;-65
2021/01/29 18:32:14;;;;;;;;;;;7.70;99.90;;;;;;5038922;28;19925;-65
2021/01/29 18:34:43;;;;;;;;;;;7.80;99.90;;;;;;5038965;28;19964;-64
2021/01/29 18:37:09;;;;;;;;;;;7.80;99.90;;;;;;5038390;28;19932;-65
2021/01/29 18:39:36;;;;;;;;;;;7.80;99.90;;;;;;5037693;28;19948;-65
2021/01/29 18:42:02;;;;;;;;;;;7.80;99.90;;;;;;5039161;28;19947;-64
2021/01/29 18:44:28;;;;;;;;;;;7.80;99.90;;;;;;5037685;28;19929;-65
2021/01/29 18:46:54;;;;;;;;;;;7.80;99.90;;;;;;5037684;28;19948;-63
2021/01/29 18:49:20;;;;;;;;;;;7.80;99.90;;;;;;5038442;28;20291;-65
2021/01/29 18:51:47;;;;;;;;;;;7.80;99.90;;;;;;5038091;28;19932;-65
2021/01/29 18:54:13;;;;;;;;;;;7.80;99.90;;;;;;5045124;28;19925;-65
2021/01/29 18:56:39;;;;;;;;;;;7.80;99.90;;;;;;5046820;28;19932;-65
2021/01/29 18:59:05;;;;;;;;;;;7.70;99.90;;;;;;5046438;28;19925;-65
2021/01/29 19:01:32;;;;;;;;;;;7.70;99.90;;;;;;5044044;28;19925;-65
2021/01/29 19:03:58;;;;;;;;;;;7.70;99.90;;;;;;5038326;28;19925;-64
2021/01/29 19:06:25;;;;;;;;;;;7.70;99.90;;;;;;5038906;28;19925;-65
2021/01/29 19:08:52;;;;;;;;;;;7.70;99.90;;;;;;5038007;28;19932;-64
2021/01/29 19:11:18;;;;;;;;;;;7.70;99.90;;;;;;5037459;28;19925;-65
2021/01/29 19:13:47;;;;;;;;;;;7.80;99.90;;;;;;5037514;28;19925;-65
2021/01/29 19:16:13;;;;;;;;;;;7.80;99.90;;;;;;5037533;28;20011;-66
2021/01/29 19:18:39;;;;;;;;;;;7.90;99.90;;;;;;5037788;28;19925;-64
2021/01/29 19:21:05;;;;;;;;;;;7.90;99.90;;;;;;5037776;28;19925;-65
2021/01/29 19:23:32;;;;;;;;;;;8.00;99.90;;;;;;5037845;28;19925;-65
2021/01/29 19:25:59;;;;;;;;;;;7.90;99.90;;;;;;5037590;28;20372;-64
2021/01/29 19:28:25;;;;;;;;;;;8.00;99.90;;;;;;5037852;28;19925;-65
2021/01/29 19:30:51;;;;;;;;;;;8.00;99.90;;;;;;5037175;28;19932;-64
2021/01/29 19:33:19;;;;;;;;;;;7.90;99.90;;;;;;5037204;28;19930;-64
2021/01/29 19:35:46;;;;;;;;;;;7.90;99.90;;;;;;5037406;28;19932;-64
2021/01/29 19:38:12;;;;;;;;;;;7.90;99.90;;;;;;5036545;28;20399;-64
2021/01/29 19:40:38;;;;;;;;;;;8.00;99.90;;;;;;5036672;28;20291;-64
2021/01/29 19:43:05;;;;;;;;;;;8.00;99.90;;;;;;5036368;28;19929;-64
2021/01/29 19:45:33;;;;;;;;;;;8.00;99.90;;;;;;5036569;28;19925;-65
2021/01/29 19:47:59;;;;;;;;;;;8.00;99.90;;;;;;5036857;28;20002;-65
2021/01/29 19:50:26;;;;;;;;;;;8.10;99.90;;;;;;5035742;28;19925;-64
2021/01/29 19:52:53;;;;;;;;;;;8.10;99.90;;;;;;5036352;28;19925;-64